sensor_id;sensor_type;location;lat;lon;timestamp;pressure;altitude;pressure_sealevel;temperature;humidity
20983;BME280;10650;51.528;6.748;2023-06-26T00:01:20;101024.06;;;25.41;52.14
20983;BME280;10650;51.528;6.748;2023-06-26T00:03:48;101022.41;;;25.38;52.30
20983;BME280;10650;51.528;6.748;2023-06-26T00:06:16;101022.53;;;25.37;52.29
20983;BME280;10650;51.528;6.748;2023-06-26T00:08:44;101018.94;;;25.36;52.54
20983;BME280;10650;51.528;6.748;2023-06-26T00:11:12;101022.63;;;25.35;52.67
20983;BME280;10650;51.528;6.748;2023-06-26T00:13:39;101022.84;;;25.32;52.55
20983;BME280;10650;51.528;6.748;2023-06-26T00:16:09;101025.56;;;25.32;52.82
20983;BME280;10650;51.528;6.748;2023-06-26T00:18:37;101020.28;;;25.29;52.63
20983;BME280;10650;51.528;6.748;2023-06-26T00:21:05;101022.31;;;25.26;52.85
20983;BME280;10650;51.528;6.748;2023-06-26T00:23:32;101021.56;;;25.24;53.14
20983;BME280;10650;51.528;6.748;2023-06-26T00:26:06;101011.81;;;25.19;52.95
20983;BME280;10650;51.528;6.748;2023-06-26T00:28:33;101014.66;;;25.18;53.24
20983;BME280;10650;51.528;6.748;2023-06-26T00:31:01;101013.75;;;25.17;53.40
20983;BME280;10650;51.528;6.748;2023-06-26T00:33:30;101015.63;;;25.17;53.30
20983;BME280;10650;51.528;6.748;2023-06-26T00:35:58;101010.47;;;25.12;53.53
20983;BME280;10650;51.528;6.748;2023-06-26T00:38:26;101012.41;;;25.10;53.68
20983;BME280;10650;51.528;6.748;2023-06-26T00:40:54;101008.25;;;25.04;53.81
20983;BME280;10650;51.528;6.748;2023-06-26T00:43:22;101011.94;;;25.03;53.82
20983;BME280;10650;51.528;6.748;2023-06-26T00:45:50;101012.91;;;25.02;54.31
20983;BME280;10650;51.528;6.748;2023-06-26T00:48:18;101010.50;;;24.98;54.55
20983;BME280;10650;51.528;6.748;2023-06-26T00:50:47;101013.34;;;24.96;54.55
20983;BME280;10650;51.528;6.748;2023-06-26T00:53:15;101006.19;;;24.94;55.14
20983;BME280;10650;51.528;6.748;2023-06-26T00:55:43;101007.59;;;24.86;55.13
20983;BME280;10650;51.528;6.748;2023-06-26T00:58:11;101009.63;;;24.83;55.64
20983;BME280;10650;51.528;6.748;2023-06-26T01:00:38;101007.19;;;24.78;55.61
20983;BME280;10650;51.528;6.748;2023-06-26T01:03:07;101001.16;;;24.73;55.84
20983;BME280;10650;51.528;6.748;2023-06-26T01:05:35;101001.34;;;24.70;56.21
20983;BME280;10650;51.528;6.748;2023-06-26T01:08:04;100994.25;;;24.67;56.39
20983;BME280;10650;51.528;6.748;2023-06-26T01:10:32;100998.03;;;24.65;56.20
20983;BME280;10650;51.528;6.748;2023-06-26T01:13:00;100996.38;;;24.62;56.67
20983;BME280;10650;51.528;6.748;2023-06-26T01:15:28;101000.19;;;24.60;56.43
20983;BME280;10650;51.528;6.748;2023-06-26T01:17:57;100993.91;;;24.58;56.40
20983;BME280;10650;51.528;6.748;2023-06-26T01:20:31;100986.03;;;24.53;56.52
20983;BME280;10650;51.528;6.748;2023-06-26T01:23:07;100993.53;;;24.49;57.21
20983;BME280;10650;51.528;6.748;2023-06-26T01:25:42;100986.50;;;24.45;57.22
20983;BME280;10650;51.528;6.748;2023-06-26T01:28:17;100988.56;;;24.42;56.85
20983;BME280;10650;51.528;6.748;2023-06-26T01:30:47;100985.94;;;24.40;57.36
20983;BME280;10650;51.528;6.748;2023-06-26T01:33:15;100981.44;;;24.39;57.39
20983;BME280;10650;51.528;6.748;2023-06-26T01:35:44;100983.56;;;24.34;57.10
20983;BME280;10650;51.528;6.748;2023-06-26T01:38:13;100981.91;;;24.31;56.80
20983;BME280;10650;51.528;6.748;2023-06-26T01:40:41;100976.38;;;24.33;57.04
20983;BME280;10650;51.528;6.748;2023-06-26T01:43:18;100978.22;;;24.32;56.90
20983;BME280;10650;51.528;6.748;2023-06-26T01:45:49;100985.44;;;24.33;56.87
20983;BME280;10650;51.528;6.748;2023-06-26T01:48:22;100976.38;;;24.33;56.83
20983;BME280;10650;51.528;6.748;2023-06-26T01:50:52;100978.31;;;24.31;56.67
20983;BME280;10650;51.528;6.748;2023-06-26T01:53:24;100980.16;;;24.30;56.65
20983;BME280;10650;51.528;6.748;2023-06-26T01:55:55;100988.38;;;24.30;56.37
20983;BME280;10650;51.528;6.748;2023-06-26T01:58:29;100981.13;;;24.29;56.35
20983;BME280;10650;51.528;6.748;2023-06-26T02:00:57;100976.66;;;24.28;56.17
20983;BME280;10650;51.528;6.748;2023-06-26T02:03:25;100984.72;;;24.30;56.38
20983;BME280;10650;51.528;6.748;2023-06-26T02:05:53;100994.03;;;24.27;56.54
20983;BME280;10650;51.528;6.748;2023-06-26T02:08:20;100992.34;;;24.25;56.58
20983;BME280;10650;51.528;6.748;2023-06-26T02:10:49;100991.44;;;24.24;56.60
20983;BME280;10650;51.528;6.748;2023-06-26T02:13:16;100987.00;;;24.23;56.30
20983;BME280;10650;51.528;6.748;2023-06-26T02:15:46;100989.03;;;24.19;56.36
20983;BME280;10650;51.528;6.748;2023-06-26T02:18:13;100991.84;;;24.18;56.63
20983;BME280;10650;51.528;6.748;2023-06-26T02:20:41;100994.66;;;24.16;56.97
20983;BME280;10650;51.528;6.748;2023-06-26T02:23:10;100997.41;;;24.16;57.24
20983;BME280;10650;51.528;6.748;2023-06-26T02:25:39;101007.66;;;24.13;57.31
20983;BME280;10650;51.528;6.748;2023-06-26T02:28:06;100996.13;;;24.08;57.43
20983;BME280;10650;51.528;6.748;2023-06-26T02:30:34;101000.31;;;23.99;57.50
20983;BME280;10650;51.528;6.748;2023-06-26T02:33:04;101001.25;;;23.98;57.39
20983;BME280;10650;51.528;6.748;2023-06-26T02:35:32;101002.06;;;24.00;57.56
20983;BME280;10650;51.528;6.748;2023-06-26T02:38:00;101006.28;;;24.06;57.03
20983;BME280;10650;51.528;6.748;2023-06-26T02:40:28;101011.25;;;24.13;57.00
20983;BME280;10650;51.528;6.748;2023-06-26T02:42:56;101014.47;;;24.20;56.88
20983;BME280;10650;51.528;6.748;2023-06-26T02:45:23;101013.28;;;24.24;56.78
20983;BME280;10650;51.528;6.748;2023-06-26T02:47:51;101013.91;;;24.29;56.70
20983;BME280;10650;51.528;6.748;2023-06-26T02:50:20;101010.31;;;24.29;56.65
20983;BME280;10650;51.528;6.748;2023-06-26T02:52:48;101015.56;;;24.32;56.63
20983;BME280;10650;51.528;6.748;2023-06-26T02:55:19;101025.56;;;24.31;56.80
20983;BME280;10650;51.528;6.748;2023-06-26T02:57:49;101028.41;;;24.30;56.94
20983;BME280;10650;51.528;6.748;2023-06-26T03:00:17;101036.69;;;24.28;57.06
20983;BME280;10650;51.528;6.748;2023-06-26T03:02:44;101044.31;;;24.23;57.17
20983;BME280;10650;51.528;6.748;2023-06-26T03:05:12;101040.78;;;24.21;57.31
20983;BME280;10650;51.528;6.748;2023-06-26T03:07:41;101048.19;;;24.19;57.38
20983;BME280;10650;51.528;6.748;2023-06-26T03:10:09;101051.22;;;24.14;58.07
20983;BME280;10650;51.528;6.748;2023-06-26T03:12:37;101049.53;;;24.12;57.92
20983;BME280;10650;51.528;6.748;2023-06-26T03:15:05;101043.38;;;24.08;58.47
20983;BME280;10650;51.528;6.748;2023-06-26T03:17:33;101049.22;;;24.02;58.46
20983;BME280;10650;51.528;6.748;2023-06-26T03:20:01;101049.31;;;24.00;58.72
20983;BME280;10650;51.528;6.748;2023-06-26T03:22:32;101054.25;;;23.94;59.23
20983;BME280;10650;51.528;6.748;2023-06-26T03:25:01;101049.84;;;23.91;59.58
20983;BME280;10650;51.528;6.748;2023-06-26T03:27:29;101061.94;;;23.87;59.41
20983;BME280;10650;51.528;6.748;2023-06-26T03:29:57;101059.53;;;23.81;59.66
20983;BME280;10650;51.528;6.748;2023-06-26T03:32:24;101069.94;;;23.74;60.10
20983;BME280;10650;51.528;6.748;2023-06-26T03:34:52;101070.09;;;23.71;60.19
20983;BME280;10650;51.528;6.748;2023-06-26T03:37:20;101063.78;;;23.71;60.48
20983;BME280;10650;51.528;6.748;2023-06-26T03:39:48;101067.47;;;23.70;60.35
20983;BME280;10650;51.528;6.748;2023-06-26T03:42:17;101064.16;;;23.64;60.71
20983;BME280;10650;51.528;6.748;2023-06-26T03:44:44;101064.25;;;23.63;61.00
20983;BME280;10650;51.528;6.748;2023-06-26T03:47:12;101066.97;;;23.63;60.88
20983;BME280;10650;51.528;6.748;2023-06-26T03:49:40;101069.69;;;23.63;60.82
20983;BME280;10650;51.528;6.748;2023-06-26T03:52:08;101077.06;;;23.61;60.91
20983;BME280;10650;51.528;6.748;2023-06-26T03:54:35;101086.31;;;23.58;60.69
20983;BME280;10650;51.528;6.748;2023-06-26T03:57:04;101087.38;;;23.56;60.58
20983;BME280;10650;51.528;6.748;2023-06-26T03:59:33;101086.50;;;23.55;61.05
20983;BME280;10650;51.528;6.748;2023-06-26T04:02:01;101089.03;;;23.58;61.01
20983;BME280;10650;51.528;6.748;2023-06-26T04:04:29;101086.06;;;23.63;60.71
20983;BME280;10650;51.528;6.748;2023-06-26T04:06:57;101094.94;;;23.66;60.46
20983;BME280;10650;51.528;6.748;2023-06-26T04:09:26;101095.53;;;23.72;60.14
20983;BME280;10650;51.528;6.748;2023-06-26T04:11:54;101101.78;;;23.74;59.82
20983;BME280;10650;51.528;6.748;2023-06-26T04:14:21;101105.50;;;23.73;59.35
20983;BME280;10650;51.528;6.748;2023-06-26T04:16:50;101101.78;;;23.74;59.40
20983;BME280;10650;51.528;6.748;2023-06-26T04:19:18;101103.44;;;23.76;58.99
20983;BME280;10650;51.528;6.748;2023-06-26T04:21:46;101099.75;;;23.77;59.25
20983;BME280;10650;51.528;6.748;2023-06-26T04:24:14;101106.81;;;23.81;59.27
20983;BME280;10650;51.528;6.748;2023-06-26T04:26:42;101110.50;;;23.80;58.92
20983;BME280;10650;51.528;6.748;2023-06-26T04:29:12;101107.47;;;23.85;59.29
20983;BME280;10650;51.528;6.748;2023-06-26T04:31:39;101115.31;;;23.91;58.89
20983;BME280;10650;51.528;6.748;2023-06-26T04:34:09;101108.63;;;23.97;59.37
20983;BME280;10650;51.528;6.748;2023-06-26T04:36:36;101104.66;;;24.02;59.41
20983;BME280;10650;51.528;6.748;2023-06-26T04:39:05;101102.03;;;24.01;59.17
20983;BME280;10650;51.528;6.748;2023-06-26T04:41:33;101105.28;;;24.08;59.29
20983;BME280;10650;51.528;6.748;2023-06-26T04:44:01;101107.72;;;24.12;59.19
20983;BME280;10650;51.528;6.748;2023-06-26T04:46:29;101109.63;;;24.26;59.10
20983;BME280;10650;51.528;6.748;2023-06-26T04:48:56;101116.50;;;24.48;58.45
20983;BME280;10650;51.528;6.748;2023-06-26T04:51:26;101110.13;;;24.92;57.85
20983;BME280;10650;51.528;6.748;2023-06-26T04:53:55;101120.47;;;25.45;56.00
20983;BME280;10650;51.528;6.748;2023-06-26T04:56:22;101115.31;;;25.95;54.70
20983;BME280;10650;51.528;6.748;2023-06-26T04:58:50;101117.97;;;26.62;53.58
20983;BME280;10650;51.528;6.748;2023-06-26T05:01:18;101121.41;;;27.17;51.93
20983;BME280;10650;51.528;6.748;2023-06-26T05:03:46;101123.88;;;27.46;50.33
20983;BME280;10650;51.528;6.748;2023-06-26T05:06:14;101123.56;;;27.25;49.53
20983;BME280;10650;51.528;6.748;2023-06-26T05:08:43;101133.25;;;26.79;50.35
20983;BME280;10650;51.528;6.748;2023-06-26T05:11:11;101135.41;;;26.35;51.10
20983;BME280;10650;51.528;6.748;2023-06-26T05:13:39;101136.66;;;25.89;51.94
20983;BME280;10650;51.528;6.748;2023-06-26T05:16:08;101148.97;;;25.55;53.00
20983;BME280;10650;51.528;6.748;2023-06-26T05:18:36;101150.91;;;25.24;53.29
20983;BME280;10650;51.528;6.748;2023-06-26T05:21:04;101147.88;;;25.00;54.09
20983;BME280;10650;51.528;6.748;2023-06-26T05:23:33;101158.50;;;24.90;54.88
20983;BME280;10650;51.528;6.748;2023-06-26T05:26:03;101156.97;;;24.86;55.51
20983;BME280;10650;51.528;6.748;2023-06-26T05:28:31;101152.19;;;25.04;55.78
20983;BME280;10650;51.528;6.748;2023-06-26T05:31:00;101162.16;;;25.19;55.24
20983;BME280;10650;51.528;6.748;2023-06-26T05:33:28;101159.72;;;25.29;54.96
20983;BME280;10650;51.528;6.748;2023-06-26T05:35:56;101156.09;;;25.43;54.98
20983;BME280;10650;51.528;6.748;2023-06-26T05:38:26;101156.97;;;25.58;54.78
20983;BME280;10650;51.528;6.748;2023-06-26T05:40:54;101165.22;;;25.71;54.38
20983;BME280;10650;51.528;6.748;2023-06-26T05:43:24;101154.94;;;25.74;54.46
20983;BME280;10650;51.528;6.748;2023-06-26T05:45:56;101173.16;;;25.61;54.04
20983;BME280;10650;51.528;6.748;2023-06-26T05:48:24;101178.28;;;25.38;54.39
20983;BME280;10650;51.528;6.748;2023-06-26T05:50:52;101181.69;;;24.99;55.13
20983;BME280;10650;51.528;6.748;2023-06-26T05:53:20;101178.22;;;24.81;55.95
20983;BME280;10650;51.528;6.748;2023-06-26T05:55:49;101187.59;;;24.77;56.91
20983;BME280;10650;51.528;6.748;2023-06-26T05:58:17;101177.25;;;24.67;57.01
20983;BME280;10650;51.528;6.748;2023-06-26T06:00:49;101185.16;;;24.56;57.37
20983;BME280;10650;51.528;6.748;2023-06-26T06:03:17;101187.19;;;24.52;57.87
20983;BME280;10650;51.528;6.748;2023-06-26T06:05:44;101181.31;;;24.60;58.11
20983;BME280;10650;51.528;6.748;2023-06-26T06:08:12;101188.16;;;24.67;58.27
20983;BME280;10650;51.528;6.748;2023-06-26T06:10:40;101191.28;;;24.76;57.65
20983;BME280;10650;51.528;6.748;2023-06-26T06:13:08;101191.19;;;24.77;57.47
20983;BME280;10650;51.528;6.748;2023-06-26T06:15:36;101191.75;;;24.68;57.50
20983;BME280;10650;51.528;6.748;2023-06-26T06:18:05;101196.00;;;24.58;57.88
20983;BME280;10650;51.528;6.748;2023-06-26T06:20:33;101214.25;;;24.41;58.05
20983;BME280;10650;51.528;6.748;2023-06-26T06:23:01;101213.94;;;24.31;58.58
20983;BME280;10650;51.528;6.748;2023-06-26T06:25:29;101213.78;;;24.34;58.96
20983;BME280;10650;51.528;6.748;2023-06-26T06:27:56;101215.94;;;24.44;59.00
20983;BME280;10650;51.528;6.748;2023-06-26T06:30:24;101218.47;;;24.47;59.37
20983;BME280;10650;51.528;6.748;2023-06-26T06:33:11;101228.88;;;24.56;59.37
20983;BME280;10650;51.528;6.748;2023-06-26T06:35:39;101219.06;;;24.68;59.38
20983;BME280;10650;51.528;6.748;2023-06-26T06:38:06;101235.22;;;24.87;58.66
20983;BME280;10650;51.528;6.748;2023-06-26T06:40:34;101244.66;;;25.12;58.54
20983;BME280;10650;51.528;6.748;2023-06-26T06:43:02;101251.09;;;25.25;57.54
20983;BME280;10650;51.528;6.748;2023-06-26T06:45:30;101251.47;;;25.19;57.34
20983;BME280;10650;51.528;6.748;2023-06-26T06:47:58;101247.66;;;25.21;57.31
20983;BME280;10650;51.528;6.748;2023-06-26T06:50:27;101253.81;;;25.25;57.04
20983;BME280;10650;51.528;6.748;2023-06-26T06:52:55;101250.03;;;25.28;57.33
20983;BME280;10650;51.528;6.748;2023-06-26T06:55:23;101255.69;;;25.25;56.99
20983;BME280;10650;51.528;6.748;2023-06-26T06:57:52;101258.44;;;25.25;57.15
20983;BME280;10650;51.528;6.748;2023-06-26T07:00:20;101253.41;;;25.17;57.23
20983;BME280;10650;51.528;6.748;2023-06-26T07:02:47;101267.19;;;25.15;57.58
20983;BME280;10650;51.528;6.748;2023-06-26T07:05:16;101266.66;;;25.09;58.04
20983;BME280;10650;51.528;6.748;2023-06-26T07:07:45;101261.91;;;25.12;58.22
20983;BME280;10650;51.528;6.748;2023-06-26T07:10:13;101272.63;;;25.01;57.93
20983;BME280;10650;51.528;6.748;2023-06-26T07:12:41;101277.81;;;25.05;58.59
20983;BME280;10650;51.528;6.748;2023-06-26T07:15:10;101270.22;;;25.25;59.12
20983;BME280;10650;51.528;6.748;2023-06-26T07:17:38;101265.66;;;25.40;58.66
20983;BME280;10650;51.528;6.748;2023-06-26T07:20:06;101272.50;;;25.47;58.47
20983;BME280;10650;51.528;6.748;2023-06-26T07:22:35;101265.41;;;25.59;58.03
20983;BME280;10650;51.528;6.748;2023-06-26T07:25:05;101260.50;;;25.64;57.99
20983;BME280;10650;51.528;6.748;2023-06-26T07:27:36;101252.47;;;25.76;57.69
20983;BME280;10650;51.528;6.748;2023-06-26T07:30:04;101260.56;;;25.91;58.00
20983;BME280;10650;51.528;6.748;2023-06-26T07:32:32;101270.44;;;26.08;57.21
20983;BME280;10650;51.528;6.748;2023-06-26T07:35:00;101266.63;;;26.11;56.36
20983;BME280;10650;51.528;6.748;2023-06-26T07:37:28;101271.00;;;26.14;56.82
20983;BME280;10650;51.528;6.748;2023-06-26T07:39:56;101268.66;;;26.07;55.79
20983;BME280;10650;51.528;6.748;2023-06-26T07:42:25;101267.19;;;26.02;56.19
20983;BME280;10650;51.528;6.748;2023-06-26T07:44:53;101272.50;;;26.05;56.29
20983;BME280;10650;51.528;6.748;2023-06-26T07:47:20;101277.66;;;26.10;56.26
20983;BME280;10650;51.528;6.748;2023-06-26T07:49:48;101273.13;;;26.23;56.08
20983;BME280;10650;51.528;6.748;2023-06-26T07:52:17;101279.88;;;26.17;55.87
20983;BME280;10650;51.528;6.748;2023-06-26T07:54:45;101292.13;;;26.12;56.03
20983;BME280;10650;51.528;6.748;2023-06-26T07:57:13;101298.00;;;26.05;55.49
20983;BME280;10650;51.528;6.748;2023-06-26T07:59:42;101296.34;;;26.03;55.89
20983;BME280;10650;51.528;6.748;2023-06-26T08:02:10;101295.44;;;26.17;56.38
20983;BME280;10650;51.528;6.748;2023-06-26T08:04:38;101300.53;;;26.08;55.25
20983;BME280;10650;51.528;6.748;2023-06-26T08:07:06;101308.22;;;26.16;55.12
20983;BME280;10650;51.528;6.748;2023-06-26T08:09:33;101310.41;;;25.82;54.82
20983;BME280;10650;51.528;6.748;2023-06-26T08:12:01;101309.81;;;25.77;55.26
20983;BME280;10650;51.528;6.748;2023-06-26T08:14:30;101316.09;;;25.79;55.17
20983;BME280;10650;51.528;6.748;2023-06-26T08:16:59;101325.56;;;25.73;55.37
20983;BME280;10650;51.528;6.748;2023-06-26T08:19:27;101309.16;;;25.73;54.52
20983;BME280;10650;51.528;6.748;2023-06-26T08:21:54;101324.00;;;25.69;54.68
20983;BME280;10650;51.528;6.748;2023-06-26T08:24:22;101329.19;;;25.74;54.85
20983;BME280;10650;51.528;6.748;2023-06-26T08:26:52;101319.91;;;25.62;54.92
20983;BME280;10650;51.528;6.748;2023-06-26T08:29:20;101322.53;;;25.64;55.78
20983;BME280;10650;51.528;6.748;2023-06-26T08:31:47;101336.88;;;25.53;55.19
20983;BME280;10650;51.528;6.748;2023-06-26T08:34:16;101325.16;;;25.36;55.79
20983;BME280;10650;51.528;6.748;2023-06-26T08:36:44;101330.53;;;25.52;56.17
20983;BME280;10650;51.528;6.748;2023-06-26T08:39:12;101331.50;;;25.80;56.36
20983;BME280;10650;51.528;6.748;2023-06-26T08:41:40;101336.09;;;25.94;55.51
20983;BME280;10650;51.528;6.748;2023-06-26T08:44:08;101339.56;;;26.12;54.66
20983;BME280;10650;51.528;6.748;2023-06-26T08:46:37;101340.22;;;26.16;54.25
20983;BME280;10650;51.528;6.748;2023-06-26T08:49:14;101351.34;;;25.98;54.11
20983;BME280;10650;51.528;6.748;2023-06-26T08:51:51;101339.03;;;26.20;55.08
20983;BME280;10650;51.528;6.748;2023-06-26T08:54:23;101347.88;;;26.52;54.62
20983;BME280;10650;51.528;6.748;2023-06-26T08:56:56;101349.00;;;26.63;53.71
20983;BME280;10650;51.528;6.748;2023-06-26T08:59:25;101343.22;;;26.67;53.96
20983;BME280;10650;51.528;6.748;2023-06-26T09:01:52;101354.09;;;26.69;52.94
20983;BME280;10650;51.528;6.748;2023-06-26T09:04:21;101356.44;;;26.60;53.41
20983;BME280;10650;51.528;6.748;2023-06-26T09:06:50;101355.94;;;26.41;52.13
20983;BME280;10650;51.528;6.748;2023-06-26T09:09:18;101342.72;;;26.33;52.75
20983;BME280;10650;51.528;6.748;2023-06-26T09:11:47;101334.50;;;26.33;53.24
20983;BME280;10650;51.528;6.748;2023-06-26T09:14:14;101340.16;;;26.45;52.99
20983;BME280;10650;51.528;6.748;2023-06-26T09:16:42;101341.81;;;26.47;52.69
20983;BME280;10650;51.528;6.748;2023-06-26T09:19:11;101344.03;;;26.69;52.99
20983;BME280;10650;51.528;6.748;2023-06-26T09:21:39;101348.16;;;26.89;51.98
20983;BME280;10650;51.528;6.748;2023-06-26T09:24:10;101352.09;;;26.85;51.04
20983;BME280;10650;51.528;6.748;2023-06-26T09:26:39;101356.78;;;26.83;50.39
20983;BME280;10650;51.528;6.748;2023-06-26T09:29:08;101350.84;;;26.76;50.12
20983;BME280;10650;51.528;6.748;2023-06-26T09:31:37;101358.28;;;26.74;50.60
20983;BME280;10650;51.528;6.748;2023-06-26T09:34:09;101358.78;;;26.67;51.32
20983;BME280;10650;51.528;6.748;2023-06-26T09:36:37;101359.38;;;26.57;52.01
20983;BME280;10650;51.528;6.748;2023-06-26T09:39:07;101363.06;;;26.44;51.09
20983;BME280;10650;51.528;6.748;2023-06-26T09:41:40;101355.47;;;26.20;50.33
20983;BME280;10650;51.528;6.748;2023-06-26T09:44:11;101355.66;;;26.31;50.48
20983;BME280;10650;51.528;6.748;2023-06-26T09:46:39;101361.69;;;26.51;49.69
20983;BME280;10650;51.528;6.748;2023-06-26T09:49:08;101374.88;;;26.44;49.44
20983;BME280;10650;51.528;6.748;2023-06-26T09:51:38;101365.41;;;26.35;49.62
20983;BME280;10650;51.528;6.748;2023-06-26T09:54:07;101365.03;;;26.27;47.62
20983;BME280;10650;51.528;6.748;2023-06-26T09:56:36;101368.22;;;26.48;49.30
20983;BME280;10650;51.528;6.748;2023-06-26T09:59:05;101371.97;;;26.74;48.08
20983;BME280;10650;51.528;6.748;2023-06-26T10:01:40;101373.00;;;26.86;48.19
20983;BME280;10650;51.528;6.748;2023-06-26T10:04:08;101367.72;;;27.10;47.64
20983;BME280;10650;51.528;6.748;2023-06-26T10:06:39;101362.66;;;27.44;46.89
20983;BME280;10650;51.528;6.748;2023-06-26T10:09:09;101364.66;;;27.68;46.61
20983;BME280;10650;51.528;6.748;2023-06-26T10:11:41;101359.69;;;27.73;45.08
20983;BME280;10650;51.528;6.748;2023-06-26T10:14:14;101363.97;;;27.77;45.97
20983;BME280;10650;51.528;6.748;2023-06-26T10:16:44;101361.25;;;28.03;46.09
20983;BME280;10650;51.528;6.748;2023-06-26T10:19:14;101353.81;;;28.29;45.51
20983;BME280;10650;51.528;6.748;2023-06-26T10:21:45;101361.09;;;27.92;44.69
20983;BME280;10650;51.528;6.748;2023-06-26T10:24:13;101378.25;;;27.44;46.03
20983;BME280;10650;51.528;6.748;2023-06-26T10:26:44;101388.41;;;27.02;46.58
20983;BME280;10650;51.528;6.748;2023-06-26T10:29:15;101389.28;;;26.89;46.74
20983;BME280;10650;51.528;6.748;2023-06-26T10:31:48;101390.44;;;27.13;47.87
20983;BME280;10650;51.528;6.748;2023-06-26T10:34:17;101394.03;;;27.40;46.03
20983;BME280;10650;51.528;6.748;2023-06-26T10:36:45;101386.78;;;27.65;46.26
20983;BME280;10650;51.528;6.748;2023-06-26T10:39:14;101394.38;;;27.87;43.96
20983;BME280;10650;51.528;6.748;2023-06-26T10:41:43;101396.81;;;28.05;44.28
20983;BME280;10650;51.528;6.748;2023-06-26T10:44:40;101391.66;;;28.00;44.05
20983;BME280;10650;51.528;6.748;2023-06-26T10:47:09;101401.09;;;27.70;43.50
20983;BME280;10650;51.528;6.748;2023-06-26T10:49:37;101402.59;;;27.49;43.85
20983;BME280;10650;51.528;6.748;2023-06-26T10:52:06;101409.41;;;27.43;43.67
20983;BME280;10650;51.528;6.748;2023-06-26T10:54:35;101410.25;;;27.43;44.20
20983;BME280;10650;51.528;6.748;2023-06-26T10:57:07;101406.31;;;27.07;42.38
20983;BME280;10650;51.528;6.748;2023-06-26T10:59:39;101415.78;;;27.29;43.24
20983;BME280;10650;51.528;6.748;2023-06-26T11:02:07;101418.63;;;27.55;43.55
20983;BME280;10650;51.528;6.748;2023-06-26T11:04:39;101417.53;;;27.70;40.90
20983;BME280;10650;51.528;6.748;2023-06-26T11:07:20;101419.31;;;27.71;39.34
20983;BME280;10650;51.528;6.748;2023-06-26T11:09:56;101414.56;;;27.48;39.75
20983;BME280;10650;51.528;6.748;2023-06-26T11:12:39;101421.72;;;27.63;41.64
20983;BME280;10650;51.528;6.748;2023-06-26T11:15:10;101423.47;;;27.64;40.13
20983;BME280;10650;51.528;6.748;2023-06-26T11:17:40;101432.44;;;27.40;40.57
20983;BME280;10650;51.528;6.748;2023-06-26T11:20:09;101439.69;;;27.41;41.53
20983;BME280;10650;51.528;6.748;2023-06-26T11:22:38;101435.00;;;27.29;41.42
20983;BME280;10650;51.528;6.748;2023-06-26T11:25:08;101430.25;;;27.45;40.58
20983;BME280;10650;51.528;6.748;2023-06-26T11:27:45;101444.31;;;27.67;39.91
20983;BME280;10650;51.528;6.748;2023-06-26T11:30:24;101441.47;;;27.55;37.79
20983;BME280;10650;51.528;6.748;2023-06-26T11:32:52;101437.53;;;27.32;37.35
20983;BME280;10650;51.528;6.748;2023-06-26T11:35:24;101445.16;;;27.41;37.18
20983;BME280;10650;51.528;6.748;2023-06-26T11:37:56;101445.94;;;27.56;37.42
20983;BME280;10650;51.528;6.748;2023-06-26T11:40:30;101433.78;;;27.60;36.82
20983;BME280;10650;51.528;6.748;2023-06-26T11:42:59;101446.09;;;27.80;37.20
20983;BME280;10650;51.528;6.748;2023-06-26T11:45:30;101449.63;;;27.95;35.81
20983;BME280;10650;51.528;6.748;2023-06-26T11:47:59;101450.53;;;28.22;35.33
20983;BME280;10650;51.528;6.748;2023-06-26T11:50:28;101453.69;;;28.41;35.78
20983;BME280;10650;51.528;6.748;2023-06-26T11:52:56;101460.78;;;28.57;36.05
20983;BME280;10650;51.528;6.748;2023-06-26T11:55:25;101464.56;;;28.43;35.02
20983;BME280;10650;51.528;6.748;2023-06-26T11:57:55;101469.38;;;28.52;35.62
20983;BME280;10650;51.528;6.748;2023-06-26T12:00:23;101471.16;;;28.27;34.88
20983;BME280;10650;51.528;6.748;2023-06-26T12:02:52;101463.78;;;28.41;32.81
20983;BME280;10650;51.528;6.748;2023-06-26T12:05:21;101465.88;;;28.50;33.84
20983;BME280;10650;51.528;6.748;2023-06-26T12:07:49;101468.53;;;28.39;33.47
20983;BME280;10650;51.528;6.748;2023-06-26T12:10:18;101469.63;;;28.23;33.09
20983;BME280;10650;51.528;6.748;2023-06-26T12:12:46;101472.34;;;28.49;35.53
20983;BME280;10650;51.528;6.748;2023-06-26T12:15:15;101470.03;;;28.69;34.27
20983;BME280;10650;51.528;6.748;2023-06-26T12:17:44;101478.41;;;28.67;33.41
20983;BME280;10650;51.528;6.748;2023-06-26T12:20:20;101478.09;;;28.20;33.10
20983;BME280;10650;51.528;6.748;2023-06-26T12:22:49;101480.63;;;28.10;34.48
20983;BME280;10650;51.528;6.748;2023-06-26T12:25:23;101482.69;;;28.33;34.90
20983;BME280;10650;51.528;6.748;2023-06-26T12:27:51;101485.66;;;28.17;34.20
20983;BME280;10650;51.528;6.748;2023-06-26T12:30:19;101498.81;;;27.86;33.15
20983;BME280;10650;51.528;6.748;2023-06-26T12:32:47;101501.78;;;27.83;33.44
20983;BME280;10650;51.528;6.748;2023-06-26T12:35:15;101509.94;;;27.30;32.93
20983;BME280;10650;51.528;6.748;2023-06-26T12:37:44;101517.06;;;27.05;33.68
20983;BME280;10650;51.528;6.748;2023-06-26T12:40:17;101516.09;;;27.06;34.24
20983;BME280;10650;51.528;6.748;2023-06-26T12:42:46;101518.81;;;27.48;34.51
20983;BME280;10650;51.528;6.748;2023-06-26T12:45:14;101514.09;;;27.50;34.32
20983;BME280;10650;51.528;6.748;2023-06-26T12:48:07;101513.03;;;27.65;33.81
20983;BME280;10650;51.528;6.748;2023-06-26T12:50:38;101508.03;;;27.85;33.92
20983;BME280;10650;51.528;6.748;2023-06-26T12:53:07;101511.19;;;27.66;33.30
20983;BME280;10650;51.528;6.748;2023-06-26T12:55:36;101511.84;;;27.69;33.39
20983;BME280;10650;51.528;6.748;2023-06-26T12:58:03;101514.06;;;27.37;32.26
20983;BME280;10650;51.528;6.748;2023-06-26T13:00:31;101510.78;;;27.44;33.50